createdAt,value
2022-12-25T00:01:51.537Z,5.77
2022-12-25T00:04:18.465Z,6.33
2022-12-25T00:06:45.621Z,4.23
2022-12-25T00:09:13.418Z,5.17
2022-12-25T00:11:40.226Z,5.30
2022-12-25T00:14:08.481Z,11.37
2022-12-25T00:16:35.370Z,11.00
2022-12-25T00:19:02.279Z,5.30
2022-12-25T00:21:29.285Z,5.03
2022-12-25T00:23:57.354Z,4.03
2022-12-25T00:26:25.425Z,3.57
2022-12-25T00:28:52.750Z,4.63
2022-12-25T00:31:22.141Z,4.50
2022-12-25T00:33:50.532Z,4.77
2022-12-25T00:36:20.295Z,3.33
2022-12-25T00:38:47.679Z,3.17
2022-12-25T00:41:16.676Z,4.23
2022-12-25T00:43:43.544Z,4.03
2022-12-25T00:46:12.598Z,4.10
2022-12-25T00:48:41.007Z,6.23
2022-12-25T00:51:11.333Z,6.43
2022-12-25T00:53:38.260Z,4.03
2022-12-25T00:56:07.285Z,3.73
2022-12-25T00:58:35.236Z,4.60
2022-12-25T01:01:02.904Z,4.90
2022-12-25T01:03:30.167Z,3.70
2022-12-25T01:06:00.638Z,5.57
2022-12-25T01:08:29.205Z,4.30
2022-12-25T01:10:57.378Z,4.07
2022-12-25T01:13:24.866Z,3.53
2022-12-25T01:15:54.704Z,3.67
2022-12-25T01:18:23.535Z,4.83
2022-12-25T01:20:51.167Z,5.20
2022-12-25T01:23:19.428Z,4.63
2022-12-25T01:25:46.311Z,4.20
2022-12-25T01:28:13.446Z,3.10
2022-12-25T01:30:40.356Z,2.93
2022-12-25T01:33:07.249Z,3.10
2022-12-25T01:35:34.083Z,4.30
2022-12-25T01:38:01.086Z,4.43
2022-12-25T01:40:29.270Z,3.80
2022-12-25T01:42:56.141Z,3.27
2022-12-25T01:45:38.410Z,3.77
2022-12-25T01:48:11.829Z,3.47
2022-12-25T01:50:42.808Z,3.73
2022-12-25T01:53:09.911Z,3.00
2022-12-25T01:55:39.683Z,2.50
2022-12-25T01:58:06.760Z,4.03
2022-12-25T02:00:33.627Z,2.10
2022-12-25T02:03:00.785Z,4.00
2022-12-25T02:05:29.938Z,2.60
2022-12-25T02:07:57.930Z,3.23
2022-12-25T02:10:24.927Z,3.23
2022-12-25T02:12:53.467Z,2.93
2022-12-25T02:15:22.756Z,2.93
2022-12-25T02:18:01.717Z,2.80
2022-12-25T02:20:43.437Z,3.87
2022-12-25T02:23:49.536Z,5.20
2022-12-25T02:26:30.495Z,6.53
2022-12-25T02:29:04.017Z,6.23
2022-12-25T02:31:37.970Z,5.70
2022-12-25T02:34:12.910Z,3.87
2022-12-25T02:36:49.158Z,2.80
2022-12-25T02:39:40.860Z,3.97
2022-12-25T02:42:15.699Z,3.90
2022-12-25T02:45:04.317Z,3.27
2022-12-25T02:47:51.827Z,2.93
2022-12-25T02:50:38.859Z,7.30
2022-12-25T02:53:26.386Z,7.93
2022-12-25T02:56:13.758Z,7.47
2022-12-25T02:59:00.914Z,9.53
2022-12-25T03:01:49.838Z,8.10
2022-12-25T03:04:39.775Z,9.87
2022-12-25T03:07:09.998Z,7.80
2022-12-25T03:10:01.331Z,9.00
2022-12-25T03:12:38.682Z,9.20
2022-12-25T03:15:26.585Z,8.37
2022-12-25T03:17:57.588Z,8.00
2022-12-25T03:20:43.302Z,8.27
2022-12-25T03:23:30.981Z,8.97
2022-12-25T03:26:16.237Z,7.80
2022-12-25T03:28:43.082Z,9.00
2022-12-25T03:31:21.499Z,9.57
2022-12-25T03:34:25.816Z,6.80
2022-12-25T03:37:04.728Z,7.80
2022-12-25T03:40:11.331Z,7.13
2022-12-25T03:43:01.926Z,7.87
2022-12-25T03:46:03.667Z,7.40
2022-12-25T03:48:53.141Z,8.37
2022-12-25T03:51:49.066Z,8.03
2022-12-25T03:54:38.670Z,10.33
2022-12-25T03:57:24.336Z,8.87
2022-12-25T04:00:10.034Z,8.77
2022-12-25T04:03:19.846Z,9.70
2022-12-25T04:06:05.210Z,8.83
2022-12-25T04:08:52.235Z,8.43
2022-12-25T04:11:37.456Z,9.30
2022-12-25T04:14:23.067Z,8.90
2022-12-25T04:17:08.739Z,8.80
2022-12-25T04:19:54.201Z,8.70
2022-12-25T04:22:39.796Z,9.80
2022-12-25T04:25:27.095Z,8.00
2022-12-25T04:28:12.655Z,8.43
2022-12-25T04:30:58.303Z,9.20
2022-12-25T04:33:43.862Z,7.97
2022-12-25T04:36:13.617Z,10.80
2022-12-25T04:38:41.702Z,7.77
2022-12-25T04:41:11.649Z,10.07
2022-12-25T04:43:38.528Z,8.17
2022-12-25T04:46:06.100Z,8.23
2022-12-25T04:48:35.149Z,8.60
2022-12-25T04:51:14.045Z,7.97
2022-12-25T04:53:40.936Z,7.50
2022-12-25T04:56:09.196Z,7.67
2022-12-25T04:58:36.144Z,8.37
2022-12-25T05:01:04.097Z,8.47
2022-12-25T05:03:31.749Z,7.60
2022-12-25T05:05:59.078Z,6.97
2022-12-25T05:08:26.202Z,8.87
2022-12-25T05:10:53.041Z,8.27
2022-12-25T05:13:21.323Z,7.87
2022-12-25T05:15:48.364Z,8.20
2022-12-25T05:18:15.410Z,9.67
2022-12-25T05:20:42.392Z,9.63
2022-12-25T05:23:11.785Z,8.27
2022-12-25T05:25:39.688Z,8.00
2022-12-25T05:28:06.735Z,8.90
2022-12-25T05:30:35.575Z,7.90
2022-12-25T05:33:02.774Z,8.80
2022-12-25T05:35:29.767Z,7.60
2022-12-25T05:37:57.041Z,7.53
2022-12-25T05:40:24.080Z,6.00
2022-12-25T05:42:50.933Z,7.53
2022-12-25T05:45:17.944Z,6.50
2022-12-25T05:47:46.156Z,6.83
2022-12-25T05:50:13.027Z,5.33
2022-12-25T05:52:39.875Z,6.33
2022-12-25T05:55:07.459Z,7.60
2022-12-25T05:57:34.310Z,6.47
2022-12-25T06:00:01.162Z,6.37
2022-12-25T06:02:28.121Z,6.27
2022-12-25T06:04:56.387Z,5.40
2022-12-25T06:07:23.296Z,6.60
2022-12-25T06:09:50.245Z,6.30
2022-12-25T06:12:17.114Z,6.87
2022-12-25T06:14:43.956Z,5.07
2022-12-25T06:17:10.841Z,5.90
2022-12-25T06:19:37.828Z,5.60
2022-12-25T06:22:06.015Z,4.83
2022-12-25T06:24:33.113Z,4.97
2022-12-25T06:26:59.982Z,4.90
2022-12-25T06:29:26.931Z,6.10
2022-12-25T06:31:57.208Z,5.13
2022-12-25T06:34:24.493Z,5.50
2022-12-25T06:36:51.478Z,5.93
2022-12-25T06:39:21.383Z,5.97
2022-12-25T06:41:48.323Z,5.63
2022-12-25T06:44:15.250Z,4.47
2022-12-25T06:46:42.113Z,5.00
2022-12-25T06:49:10.245Z,5.67
2022-12-25T06:51:37.210Z,6.03
2022-12-25T06:54:04.606Z,5.90
2022-12-25T06:56:34.551Z,4.73
2022-12-25T06:59:02.806Z,4.77
2022-12-25T07:01:34.036Z,4.17
2022-12-25T07:04:03.356Z,4.97
2022-12-25T07:06:30.459Z,3.97
2022-12-25T07:08:57.407Z,4.20
2022-12-25T07:11:24.678Z,3.57
2022-12-25T07:13:53.335Z,4.93
2022-12-25T07:16:20.315Z,3.47
2022-12-25T07:18:47.332Z,3.30
2022-12-25T07:21:16.258Z,3.20
2022-12-25T07:23:44.202Z,4.57
2022-12-25T07:26:12.027Z,3.80
2022-12-25T07:28:39.317Z,4.80
2022-12-25T07:31:11.161Z,4.10
2022-12-25T07:33:38.038Z,4.77
2022-12-25T07:36:05.646Z,4.07
2022-12-25T07:38:32.759Z,3.30
2022-12-25T07:40:59.971Z,3.80
2022-12-25T07:43:27.370Z,3.50
2022-12-25T07:45:55.735Z,2.23
2022-12-25T07:48:24.011Z,3.03
2022-12-25T07:50:56.400Z,3.47
2022-12-25T07:53:23.360Z,2.83
2022-12-25T07:55:56.809Z,3.27
2022-12-25T07:58:23.817Z,2.17
2022-12-25T08:00:50.790Z,3.20
2022-12-25T08:03:18.607Z,2.40
2022-12-25T08:05:47.141Z,3.43
2022-12-25T08:08:14.172Z,3.10
2022-12-25T08:10:45.488Z,5.00
2022-12-25T08:13:14.785Z,4.50
2022-12-25T08:15:42.129Z,4.10
2022-12-25T08:18:09.080Z,5.23
2022-12-25T08:20:35.986Z,4.30
2022-12-25T08:23:04.892Z,4.47
2022-12-25T08:25:32.148Z,3.63
2022-12-25T08:28:00.141Z,3.37
2022-12-25T08:30:27.145Z,4.10
2022-12-25T08:32:54.132Z,3.53
2022-12-25T08:35:21.177Z,3.83
2022-12-25T08:37:48.127Z,3.07
2022-12-25T08:40:16.774Z,2.30
2022-12-25T08:42:43.704Z,3.57
2022-12-25T08:45:11.472Z,3.43
2022-12-25T08:47:38.388Z,3.33
2022-12-25T08:50:06.764Z,2.83
2022-12-25T08:52:33.801Z,4.63
2022-12-25T08:55:00.650Z,4.07
2022-12-25T08:57:28.886Z,3.53
2022-12-25T08:59:55.800Z,3.90
2022-12-25T09:02:22.744Z,4.20
2022-12-25T09:04:49.730Z,3.83
2022-12-25T09:07:16.534Z,3.20
2022-12-25T09:09:43.569Z,2.50
2022-12-25T09:12:10.490Z,3.07
2022-12-25T09:14:38.771Z,3.93
2022-12-25T09:17:05.854Z,4.77
2022-12-25T09:19:32.893Z,3.00
2022-12-25T09:21:59.769Z,2.60
2022-12-25T09:24:26.773Z,2.80
2022-12-25T09:26:53.666Z,3.33
2022-12-25T09:29:20.748Z,3.50
2022-12-25T09:31:48.959Z,2.90
2022-12-25T09:34:18.971Z,2.57
2022-12-25T09:36:46.104Z,2.13
2022-12-25T09:39:12.951Z,2.37
2022-12-25T09:41:49.516Z,3.53
2022-12-25T09:44:20.934Z,1.93
2022-12-25T09:46:53.763Z,1.30
2022-12-25T09:49:26.664Z,0.93
2022-12-25T09:51:59.807Z,1.37
2022-12-25T09:54:38.853Z,1.10
2022-12-25T09:57:05.987Z,1.20
2022-12-25T09:59:32.834Z,2.20
2022-12-25T10:02:22.922Z,3.07
2022-12-25T10:05:05.944Z,2.43
2022-12-25T10:07:41.793Z,2.73
2022-12-25T10:10:25.187Z,2.67
2022-12-25T10:13:01.590Z,2.27
2022-12-25T10:15:36.699Z,2.23
2022-12-25T10:18:32.145Z,1.93
2022-12-25T10:21:01.249Z,1.60
2022-12-25T10:23:30.923Z,1.53
2022-12-25T10:25:57.990Z,1.50
2022-12-25T10:28:32.508Z,1.63
2022-12-25T10:31:15.686Z,1.40
2022-12-25T10:33:43.952Z,1.77
2022-12-25T10:36:10.824Z,2.23
2022-12-25T10:38:37.665Z,1.90
2022-12-25T10:41:21.285Z,1.50
2022-12-25T10:43:50.613Z,2.50
2022-12-25T10:46:19.539Z,2.87
2022-12-25T10:48:51.392Z,2.10
2022-12-25T10:51:29.177Z,2.97
2022-12-25T10:53:56.025Z,2.23
2022-12-25T10:56:23.149Z,2.27
2022-12-25T10:58:50.198Z,1.90
2022-12-25T11:01:17.475Z,1.97
2022-12-25T11:03:50.997Z,2.30
2022-12-25T11:06:23.864Z,4.13
2022-12-25T11:08:54.275Z,1.80
2022-12-25T11:11:21.651Z,2.47
2022-12-25T11:13:51.115Z,1.90
2022-12-25T11:16:28.084Z,1.93
2022-12-25T11:18:57.988Z,2.27
2022-12-25T11:21:27.230Z,2.00
2022-12-25T11:23:58.831Z,1.77
2022-12-25T11:26:26.265Z,2.23
2022-12-25T11:28:54.829Z,2.80
2022-12-25T11:31:23.798Z,2.77
2022-12-25T11:33:54.952Z,1.70
2022-12-25T11:36:29.784Z,3.07
2022-12-25T11:38:59.938Z,2.67
2022-12-25T11:41:32.237Z,2.47
2022-12-25T11:44:05.056Z,1.33
2022-12-25T11:46:40.199Z,2.03
2022-12-25T11:49:13.300Z,1.57
2022-12-25T11:51:45.911Z,2.33
2022-12-25T11:54:20.525Z,2.23
2022-12-25T11:56:47.356Z,1.97
2022-12-25T11:59:21.488Z,2.10
2022-12-25T12:01:52.708Z,2.47
2022-12-25T12:04:29.486Z,1.97
2022-12-25T12:07:03.963Z,3.43
2022-12-25T12:09:40.251Z,1.63
2022-12-25T12:12:12.939Z,1.67
2022-12-25T12:14:48.354Z,2.53
2022-12-25T12:17:16.910Z,1.73
2022-12-25T12:19:44.098Z,2.00
2022-12-25T12:22:21.215Z,1.63
2022-12-25T12:24:53.644Z,2.27
2022-12-25T12:27:25.509Z,1.60
2022-12-25T12:29:55.508Z,2.43
2022-12-25T12:32:37.272Z,1.37
2022-12-25T12:35:17.129Z,1.47
2022-12-25T12:37:47.250Z,2.17
2022-12-25T12:40:33.108Z,3.27
2022-12-25T12:43:00.929Z,1.70
2022-12-25T12:45:31.307Z,1.90
2022-12-25T12:47:58.539Z,1.50
2022-12-25T12:50:34.174Z,1.87
2022-12-25T12:53:26.374Z,1.60
2022-12-25T12:55:53.362Z,1.40
2022-12-25T12:58:28.420Z,1.70
2022-12-25T13:01:01.009Z,1.30
2022-12-25T13:03:38.190Z,2.30
2022-12-25T13:06:12.041Z,1.77
2022-12-25T13:08:55.179Z,1.60
2022-12-25T13:11:24.618Z,1.40
2022-12-25T13:13:53.854Z,1.20
2022-12-25T13:16:25.169Z,1.83
2022-12-25T13:18:54.075Z,1.80
2022-12-25T13:21:23.672Z,1.40
2022-12-25T13:23:58.228Z,1.20
2022-12-25T13:26:25.503Z,2.43
2022-12-25T13:28:52.446Z,1.67
2022-12-25T13:31:21.229Z,1.30
2022-12-25T13:33:55.110Z,1.10
2022-12-25T13:36:22.099Z,1.40
2022-12-25T13:38:51.621Z,1.73
2022-12-25T13:41:41.131Z,1.57
2022-12-25T13:44:18.049Z,2.17
2022-12-25T13:46:44.999Z,1.40
2022-12-25T13:49:15.577Z,1.20
2022-12-25T13:51:42.595Z,1.47
2022-12-25T13:54:11.491Z,1.47
2022-12-25T13:56:46.771Z,1.30
2022-12-25T13:59:16.706Z,1.23
2022-12-25T14:01:43.948Z,1.10
2022-12-25T14:04:15.790Z,1.07
2022-12-25T14:06:42.641Z,2.90
2022-12-25T14:09:11.387Z,1.77
2022-12-25T14:11:42.923Z,2.27
2022-12-25T14:14:16.957Z,2.10
2022-12-25T14:16:48.566Z,1.33
2022-12-25T14:19:26.152Z,2.20
2022-12-25T14:21:58.398Z,2.33
2022-12-25T14:24:27.281Z,2.40
2022-12-25T14:27:00.364Z,1.83
2022-12-25T14:29:32.504Z,1.73
2022-12-25T14:32:03.076Z,1.60
2022-12-25T14:34:31.163Z,1.83
2022-12-25T14:36:58.031Z,2.80
2022-12-25T14:39:33.225Z,2.60
2022-12-25T14:42:11.359Z,2.50
2022-12-25T14:44:39.887Z,4.57
2022-12-25T14:47:16.092Z,2.57
2022-12-25T14:49:44.668Z,2.37
2022-12-25T14:52:18.009Z,3.17
2022-12-25T14:54:47.783Z,4.80
2022-12-25T14:57:29.680Z,3.93
2022-12-25T14:59:59.503Z,4.03
2022-12-25T15:02:26.918Z,2.17
2022-12-25T15:04:53.855Z,1.77
2022-12-25T15:07:28.432Z,3.40
2022-12-25T15:10:18.513Z,1.97
2022-12-25T15:12:43.762Z,2.87
2022-12-25T15:15:11.040Z,2.33
2022-12-25T15:17:38.163Z,2.40
2022-12-25T15:20:08.506Z,2.50
2022-12-25T15:23:02.263Z,2.37
2022-12-25T15:25:22.237Z,1.93
2022-12-25T15:27:50.415Z,1.97
2022-12-25T15:30:17.335Z,1.83
2022-12-25T15:32:44.264Z,1.70
2022-12-25T15:35:15.212Z,1.60
2022-12-25T15:37:42.109Z,2.83
2022-12-25T15:40:11.491Z,1.70
2022-12-25T15:42:38.909Z,3.70
2022-12-25T15:45:18.623Z,2.47
2022-12-25T15:47:45.927Z,2.63
2022-12-25T15:50:12.778Z,2.27
2022-12-25T15:52:39.608Z,2.47
2022-12-25T15:55:07.741Z,2.77
2022-12-25T15:57:35.772Z,3.33
2022-12-25T16:00:02.906Z,3.37
2022-12-25T16:02:40.265Z,3.70
2022-12-25T16:05:10.482Z,2.77
2022-12-25T16:07:37.699Z,3.33
2022-12-25T16:10:05.864Z,1.90
2022-12-25T16:12:32.890Z,2.60
2022-12-25T16:14:59.817Z,1.80
2022-12-25T16:17:29.824Z,2.20
2022-12-25T16:19:58.033Z,1.93
2022-12-25T16:22:28.359Z,1.90
2022-12-25T16:24:55.316Z,2.50
2022-12-25T16:27:22.375Z,1.67
2022-12-25T16:29:49.276Z,1.63
2022-12-25T16:32:16.811Z,1.73
2022-12-25T16:34:43.736Z,1.37
2022-12-25T16:37:12.001Z,2.40
2022-12-25T16:39:38.916Z,3.17
2022-12-25T16:42:05.926Z,2.37
2022-12-25T16:44:36.483Z,1.57
2022-12-25T16:47:03.611Z,2.30
2022-12-25T16:49:30.460Z,2.10
2022-12-25T16:51:57.350Z,1.20
2022-12-25T16:54:25.511Z,2.23
2022-12-25T16:56:52.271Z,1.20
2022-12-25T16:59:19.078Z,1.27
2022-12-25T17:01:46.052Z,0.90
2022-12-25T17:04:13.193Z,1.50
2022-12-25T17:06:40.135Z,1.27
2022-12-25T17:09:07.486Z,2.30
2022-12-25T17:11:35.682Z,1.80
2022-12-25T17:14:04.255Z,1.63
2022-12-25T17:16:33.387Z,1.10
2022-12-25T17:19:02.332Z,1.77
2022-12-25T17:21:30.462Z,2.63
2022-12-25T17:24:02.398Z,1.87
2022-12-25T17:26:30.704Z,3.20
2022-12-25T17:28:59.220Z,2.67
2022-12-25T17:31:26.206Z,1.80
2022-12-25T17:33:53.127Z,2.73
2022-12-25T17:36:21.477Z,2.37
2022-12-25T17:38:48.676Z,2.73
2022-12-25T17:41:16.860Z,2.37
2022-12-25T17:43:45.763Z,2.30
2022-12-25T17:46:15.823Z,2.03
2022-12-25T17:48:43.215Z,3.00
2022-12-25T17:51:13.068Z,3.10
2022-12-25T17:53:41.880Z,4.00
2022-12-25T17:56:10.027Z,3.13
2022-12-25T17:58:37.689Z,2.30
2022-12-25T18:01:10.053Z,2.50
2022-12-25T18:03:38.788Z,1.93
2022-12-25T18:06:07.574Z,1.73
2022-12-25T18:08:39.305Z,1.63
2022-12-25T18:11:08.693Z,2.40
2022-12-25T18:13:35.565Z,1.63
2022-12-25T18:16:04.524Z,2.87
2022-12-25T18:18:31.724Z,2.07
2022-12-25T18:21:00.075Z,3.30
2022-12-25T18:23:26.976Z,1.67
2022-12-25T18:25:54.074Z,3.27
2022-12-25T18:28:21.002Z,2.07
2022-12-25T18:30:48.652Z,1.53
2022-12-25T18:33:15.469Z,1.67
2022-12-25T18:35:43.872Z,1.87
2022-12-25T18:38:12.142Z,2.33
2022-12-25T18:40:40.988Z,2.10
2022-12-25T18:43:08.825Z,4.43
2022-12-25T18:45:36.252Z,1.77
2022-12-25T18:48:03.543Z,1.40
2022-12-25T18:50:31.111Z,3.73
2022-12-25T18:52:58.572Z,2.60
2022-12-25T18:55:27.124Z,2.30
2022-12-25T18:57:54.405Z,3.07
2022-12-25T19:00:21.744Z,2.43
2022-12-25T19:02:48.764Z,2.30
2022-12-25T19:05:16.683Z,2.10
2022-12-25T19:07:43.930Z,3.20
2022-12-25T19:10:10.832Z,2.20
2022-12-25T19:12:39.075Z,2.47
2022-12-25T19:15:06.922Z,2.20
2022-12-25T19:17:34.469Z,3.60
2022-12-25T19:20:02.070Z,2.73
2022-12-25T19:22:29.239Z,2.80
2022-12-25T19:24:56.173Z,1.93
2022-12-25T19:27:22.977Z,2.10
2022-12-25T19:29:51.131Z,2.67
2022-12-25T19:32:17.913Z,2.20
2022-12-25T19:34:44.923Z,2.23
2022-12-25T19:37:11.901Z,2.53
2022-12-25T19:39:39.806Z,2.13
2022-12-25T19:42:06.771Z,2.27
2022-12-25T19:44:33.600Z,3.00
2022-12-25T19:47:01.749Z,2.13
2022-12-25T19:49:28.765Z,2.17
2022-12-25T19:51:55.603Z,1.70
2022-12-25T19:54:22.450Z,2.23
2022-12-25T19:56:49.508Z,2.70
2022-12-25T19:59:16.382Z,2.93
2022-12-25T20:01:43.625Z,1.83
2022-12-25T20:04:12.013Z,3.43
2022-12-25T20:06:39.716Z,3.30
2022-12-25T20:09:08.746Z,2.13
2022-12-25T20:11:36.637Z,3.07
2022-12-25T20:14:05.089Z,1.97
2022-12-25T20:16:32.054Z,2.80
2022-12-25T20:18:59.318Z,3.50
2022-12-25T20:21:29.840Z,3.43
2022-12-25T20:23:57.502Z,2.87
2022-12-25T20:26:26.801Z,2.30
2022-12-25T20:28:53.959Z,2.30
2022-12-25T20:31:22.944Z,2.63
2022-12-25T20:33:49.947Z,2.10
2022-12-25T20:36:18.445Z,3.27
2022-12-25T20:38:47.069Z,2.20
2022-12-25T20:41:31.924Z,2.83
2022-12-25T20:43:58.954Z,2.37
2022-12-25T20:46:27.531Z,1.90
2022-12-25T20:48:54.589Z,2.07
2022-12-25T20:51:23.499Z,2.47
2022-12-25T20:53:52.279Z,2.20
2022-12-25T20:56:21.237Z,2.77
2022-12-25T20:58:48.132Z,2.37
2022-12-25T21:01:17.225Z,3.13
2022-12-25T21:03:44.643Z,4.00
2022-12-25T21:06:12.382Z,3.60
2022-12-25T21:08:40.706Z,3.27
2022-12-25T21:11:09.392Z,3.47
2022-12-25T21:13:42.797Z,2.93
2022-12-25T21:16:11.815Z,3.13
2022-12-25T21:18:39.449Z,4.60
2022-12-25T21:21:07.586Z,2.73
2022-12-25T21:23:36.064Z,2.57
2022-12-25T21:26:11.599Z,2.63
2022-12-25T21:28:38.646Z,3.60
2022-12-25T21:31:06.922Z,2.57
2022-12-25T21:33:52.866Z,2.83
2022-12-25T21:36:22.799Z,2.47
2022-12-25T21:38:54.106Z,3.67
2022-12-25T21:41:23.325Z,3.30
2022-12-25T21:43:53.776Z,4.23
2022-12-25T21:46:20.988Z,2.20
2022-12-25T21:48:48.387Z,2.87
2022-12-25T21:51:36.867Z,2.00
2022-12-25T21:54:05.028Z,2.93
2022-12-25T21:56:41.428Z,2.50
2022-12-25T21:59:13.265Z,2.50
2022-12-25T22:01:40.221Z,3.37
2022-12-25T22:04:10.044Z,2.07
2022-12-25T22:06:55.775Z,3.67
2022-12-25T22:09:23.281Z,3.03
2022-12-25T22:12:09.969Z,2.63
2022-12-25T22:14:56.913Z,2.47
2022-12-25T22:17:44.346Z,3.67
2022-12-25T22:20:13.916Z,1.93
2022-12-25T22:22:40.790Z,2.90
2022-12-25T22:25:09.118Z,2.73
2022-12-25T22:27:39.053Z,3.20
2022-12-25T22:30:08.811Z,3.10
2022-12-25T22:32:35.729Z,3.27
2022-12-25T22:35:02.731Z,3.60
2022-12-25T22:37:29.581Z,2.53
2022-12-25T22:39:56.459Z,3.03
2022-12-25T22:42:23.337Z,3.07
2022-12-25T22:44:51.565Z,3.53
2022-12-25T22:47:18.452Z,3.77
2022-12-25T22:49:45.247Z,4.37
2022-12-25T22:52:12.163Z,4.63
2022-12-25T22:54:39.329Z,4.37
2022-12-25T22:57:06.415Z,2.87
2022-12-25T22:59:33.805Z,2.43
2022-12-25T23:02:02.151Z,3.23
2022-12-25T23:04:29.473Z,4.87
2022-12-25T23:06:56.599Z,3.00
2022-12-25T23:09:27.630Z,4.60
2022-12-25T23:11:55.550Z,2.93
2022-12-25T23:14:40.804Z,3.40
2022-12-25T23:17:31.097Z,2.47
2022-12-25T23:20:18.081Z,3.50
2022-12-25T23:23:04.644Z,2.97
2022-12-25T23:25:50.060Z,3.03
2022-12-25T23:28:39.548Z,3.67
2022-12-25T23:31:06.754Z,3.43
2022-12-25T23:33:35.006Z,2.97
2022-12-25T23:36:01.901Z,3.43
2022-12-25T23:38:28.911Z,3.27
2022-12-25T23:40:55.886Z,4.67
2022-12-25T23:43:22.773Z,5.57
2022-12-25T23:45:49.643Z,4.23
2022-12-25T23:48:16.606Z,3.53
2022-12-25T23:50:44.793Z,3.50
2022-12-25T23:53:11.654Z,3.07
2022-12-25T23:55:38.723Z,2.80
2022-12-25T23:58:05.557Z,3.13
